createdAt,value
2018-12-25T00:00:42.277Z,9.43
2018-12-25T00:03:22.246Z,8.20
2018-12-25T00:06:02.327Z,9.53
2018-12-25T00:08:42.529Z,8.85
2018-12-25T00:11:22.526Z,8.95
2018-12-25T00:14:02.586Z,8.03
2018-12-25T00:16:42.422Z,9.18
2018-12-25T00:19:22.666Z,9.70
2018-12-25T00:22:02.567Z,8.83
2018-12-25T00:24:42.715Z,7.42
2018-12-25T00:27:22.745Z,12.65
2018-12-25T00:30:02.937Z,8.25
2018-12-25T00:32:42.685Z,10.03
2018-12-25T00:35:22.771Z,8.70
2018-12-25T00:38:02.649Z,11.43
2018-12-25T00:40:42.790Z,7.90
2018-12-25T00:43:22.753Z,8.65
2018-12-25T00:46:02.894Z,7.87
2018-12-25T00:48:43.027Z,7.92
2018-12-25T00:51:22.679Z,8.23
2018-12-25T00:54:02.855Z,8.30
2018-12-25T00:56:42.633Z,8.80
2018-12-25T00:59:22.750Z,8.80
2018-12-25T01:02:02.746Z,8.28
2018-12-25T01:04:42.825Z,8.58
2018-12-25T01:07:22.993Z,8.33
2018-12-25T01:10:03.133Z,9.55
2018-12-25T01:12:43.185Z,10.85
2018-12-25T01:15:23.445Z,10.75
2018-12-25T01:18:03.204Z,9.18
2018-12-25T01:20:43.256Z,9.03
2018-12-25T01:23:23.162Z,9.23
2018-12-25T01:26:03.052Z,9.70
2018-12-25T01:28:43.314Z,9.03
2018-12-25T01:31:23.277Z,8.95
2018-12-25T01:34:03.270Z,9.50
2018-12-25T01:36:43.367Z,8.33
2018-12-25T01:39:23.540Z,13.45
2018-12-25T01:42:03.770Z,11.95
2018-12-25T01:44:43.841Z,10.58
2018-12-25T01:47:24.079Z,10.70
2018-12-25T01:50:04.309Z,9.73
2018-12-25T01:52:44.253Z,13.08
2018-12-25T01:55:24.377Z,9.83
2018-12-25T01:58:04.282Z,10.00
2018-12-25T02:00:44.209Z,11.45
2018-12-25T02:03:24.063Z,9.60
2018-12-25T02:06:04.161Z,10.23
2018-12-25T02:08:44.119Z,9.40
2018-12-25T02:11:24.418Z,10.80
2018-12-25T02:14:04.309Z,10.35
2018-12-25T02:16:44.331Z,10.03
2018-12-25T02:19:24.254Z,10.82
2018-12-25T02:22:04.287Z,11.30
2018-12-25T02:24:44.225Z,11.53
2018-12-25T02:27:24.201Z,10.28
2018-12-25T02:30:04.351Z,10.93
2018-12-25T02:32:44.491Z,10.15
2018-12-25T02:35:24.466Z,16.67
2018-12-25T02:38:04.682Z,11.75
2018-12-25T02:40:44.706Z,11.55
2018-12-25T02:43:24.735Z,12.23
2018-12-25T02:46:04.837Z,13.98
2018-12-25T02:48:44.778Z,12.80
2018-12-25T02:51:24.767Z,11.83
2018-12-25T02:54:04.935Z,11.18
2018-12-25T02:56:45.198Z,12.37
2018-12-25T02:59:25.254Z,13.40
2018-12-25T03:02:05.325Z,14.05
2018-12-25T03:04:45.462Z,13.22
2018-12-25T03:07:25.685Z,11.53
2018-12-25T03:10:05.697Z,11.10
2018-12-25T03:12:45.936Z,10.78
2018-12-25T03:15:26.188Z,9.63
2018-12-25T03:18:06.249Z,10.05
2018-12-25T03:20:46.074Z,16.62
2018-12-25T03:23:26.158Z,9.88
2018-12-25T03:26:06.310Z,8.60
2018-12-25T03:28:46.220Z,9.70
2018-12-25T03:31:26.419Z,9.63
2018-12-25T03:34:06.565Z,9.45
2018-12-25T03:36:46.810Z,10.13
2018-12-25T03:39:27.039Z,9.48
2018-12-25T03:42:07.433Z,9.48
2018-12-25T03:44:47.551Z,9.50
2018-12-25T03:47:27.710Z,9.95
2018-12-25T03:50:10.925Z,12.30
2018-12-25T03:52:49.694Z,9.73
2018-12-25T03:55:29.967Z,9.25
2018-12-25T03:58:10.097Z,9.23
2018-12-25T04:00:50.085Z,8.18
2018-12-25T04:03:30.224Z,8.70
2018-12-25T04:06:14.248Z,10.10
2018-12-25T04:08:54.374Z,9.15
2018-12-25T04:11:34.383Z,8.65
2018-12-25T04:14:14.313Z,9.15
2018-12-25T04:16:54.295Z,9.83
2018-12-25T04:19:34.291Z,9.13
2018-12-25T04:22:14.301Z,8.48
2018-12-25T04:24:54.248Z,7.30
2018-12-25T04:27:34.159Z,8.98
2018-12-25T04:30:14.034Z,8.90
2018-12-25T04:32:54.049Z,8.95
2018-12-25T04:35:34.173Z,9.85
2018-12-25T04:38:14.291Z,10.18
2018-12-25T04:40:54.131Z,15.98
2018-12-25T04:43:34.291Z,9.65
2018-12-25T04:46:14.110Z,10.58
2018-12-25T04:48:54.345Z,8.90
2018-12-25T04:51:34.321Z,10.90
2018-12-25T04:54:14.602Z,10.40
2018-12-25T04:56:54.627Z,9.65
2018-12-25T04:59:21.481Z,11.08
2018-12-25T05:02:08.122Z,10.23
2018-12-25T05:04:54.689Z,9.23
2018-12-25T05:07:41.253Z,9.68
2018-12-25T05:10:27.893Z,9.95
2018-12-25T05:13:14.462Z,9.95
2018-12-25T05:16:01.429Z,9.85
2018-12-25T05:18:47.995Z,10.10
2018-12-25T05:21:27.490Z,10.88
2018-12-25T05:24:07.572Z,9.95
2018-12-25T05:26:47.420Z,11.35
2018-12-25T05:29:27.461Z,11.33
2018-12-25T05:32:07.453Z,10.60
2018-12-25T05:34:34.278Z,11.80
2018-12-25T05:37:20.894Z,9.78
2018-12-25T05:40:07.421Z,11.35
2018-12-25T05:42:55.890Z,10.65
2018-12-25T05:45:42.417Z,10.40
2018-12-25T05:48:29.027Z,9.45
2018-12-25T05:51:15.561Z,10.82
2018-12-25T05:54:02.126Z,9.80
2018-12-25T05:56:48.690Z,10.20
2018-12-25T05:59:35.252Z,12.50
2018-12-25T06:02:21.778Z,9.45
2018-12-25T06:05:08.345Z,9.90
2018-12-25T06:07:54.869Z,10.93
2018-12-25T06:10:41.430Z,10.40
2018-12-25T06:13:27.963Z,10.82
2018-12-25T06:16:14.528Z,10.48
2018-12-25T06:18:41.309Z,10.70
2018-12-25T06:21:27.897Z,10.78
2018-12-25T06:24:07.781Z,12.68
2018-12-25T06:26:47.881Z,12.30
2018-12-25T06:29:27.961Z,9.93
2018-12-25T06:32:07.985Z,10.65
2018-12-25T06:34:48.005Z,13.00
2018-12-25T06:37:28.095Z,12.18
2018-12-25T06:40:08.261Z,10.05
2018-12-25T06:42:48.214Z,10.25
2018-12-25T06:45:28.423Z,10.95
2018-12-25T06:48:08.520Z,14.95
2018-12-25T06:50:48.458Z,12.55
2018-12-25T06:53:28.633Z,12.47
2018-12-25T06:56:08.586Z,11.88
2018-12-25T06:58:48.505Z,10.50
2018-12-25T07:01:28.638Z,10.70
2018-12-25T07:04:08.614Z,10.25
2018-12-25T07:06:50.495Z,9.20
2018-12-25T07:09:30.653Z,11.18
2018-12-25T07:12:10.769Z,11.80
2018-12-25T07:14:50.717Z,10.90
2018-12-25T07:17:30.682Z,10.80
2018-12-25T07:20:10.885Z,10.05
2018-12-25T07:22:50.905Z,11.08
2018-12-25T07:25:30.999Z,11.25
2018-12-25T07:28:11.157Z,11.80
2018-12-25T07:30:51.002Z,12.10
2018-12-25T07:33:31.051Z,10.25
2018-12-25T07:36:11.002Z,11.05
2018-12-25T07:38:51.057Z,10.35
2018-12-25T07:41:33.044Z,10.60
2018-12-25T07:44:13.368Z,9.80
2018-12-25T07:46:53.304Z,10.03
2018-12-25T07:49:33.352Z,10.98
2018-12-25T07:52:13.574Z,10.43
2018-12-25T07:54:53.521Z,9.73
2018-12-25T07:57:33.397Z,9.03
2018-12-25T08:00:13.463Z,9.98
2018-12-25T08:02:53.341Z,9.33
2018-12-25T08:08:22.418Z,8.60
2018-12-25T08:11:02.301Z,9.03
2018-12-25T08:13:46.277Z,7.50
2018-12-25T08:16:26.761Z,7.97
2018-12-25T08:19:06.907Z,10.58
2018-12-25T08:21:47.077Z,9.03
2018-12-25T08:24:27.100Z,9.95
2018-12-25T08:27:07.305Z,9.43
2018-12-25T08:29:47.378Z,8.20
2018-12-25T08:32:27.482Z,7.70
2018-12-25T08:35:07.512Z,10.88
2018-12-25T08:37:47.489Z,8.13
2018-12-25T08:40:27.478Z,7.92
2018-12-25T08:43:07.597Z,8.75
2018-12-25T08:45:47.586Z,8.08
2018-12-25T08:48:27.349Z,9.80
2018-12-25T08:51:07.547Z,9.88
2018-12-25T08:53:47.673Z,11.03
2018-12-25T08:56:27.838Z,9.85
2018-12-25T08:59:07.942Z,9.35
2018-12-25T09:01:48.005Z,11.10
2018-12-25T09:04:27.979Z,11.10
2018-12-25T09:07:08.093Z,10.18
2018-12-25T09:09:47.930Z,8.18
2018-12-25T09:12:28.203Z,10.00
2018-12-25T09:15:08.426Z,11.03
2018-12-25T09:17:48.542Z,9.98
2018-12-25T09:20:28.481Z,8.53
2018-12-25T09:23:08.570Z,10.88
2018-12-25T09:25:48.768Z,10.90
2018-12-25T09:28:28.849Z,10.90
2018-12-25T09:31:08.997Z,10.55
2018-12-25T09:33:49.064Z,11.63
2018-12-25T09:36:29.205Z,11.25
2018-12-25T09:39:09.205Z,11.00
2018-12-25T09:41:49.336Z,11.95
2018-12-25T09:44:29.410Z,11.48
2018-12-25T09:47:09.531Z,11.68
2018-12-25T09:49:49.509Z,13.35
2018-12-25T09:52:29.618Z,12.00
2018-12-25T09:55:09.830Z,13.20
2018-12-25T09:57:49.929Z,12.82
2018-12-25T10:00:30.354Z,10.70
2018-12-25T10:03:10.121Z,12.35
2018-12-25T10:05:50.286Z,13.45
2018-12-25T10:08:30.183Z,12.70
2018-12-25T10:11:10.424Z,13.00
2018-12-25T10:13:50.567Z,13.40
2018-12-25T10:16:31.005Z,22.73
2018-12-25T10:19:11.225Z,14.43
2018-12-25T10:21:51.354Z,13.57
2018-12-25T10:24:31.679Z,10.80
2018-12-25T10:27:11.701Z,9.53
2018-12-25T10:29:51.737Z,10.85
2018-12-25T10:32:32.054Z,12.60
2018-12-25T10:35:12.022Z,11.68
2018-12-25T10:37:51.970Z,10.45
2018-12-25T10:40:32.125Z,10.28
2018-12-25T10:43:12.117Z,9.98
2018-12-25T10:45:51.944Z,12.03
2018-12-25T10:48:31.973Z,11.57
2018-12-25T10:51:12.089Z,9.90
2018-12-25T10:53:52.306Z,10.70
2018-12-25T10:56:32.141Z,10.93
2018-12-25T10:59:12.100Z,10.82
2018-12-25T11:01:52.216Z,12.60
2018-12-25T11:04:32.314Z,13.22
2018-12-25T11:07:12.245Z,9.53
2018-12-25T11:09:52.338Z,10.08
2018-12-25T11:12:32.150Z,9.05
2018-12-25T11:15:12.114Z,9.28
2018-12-25T11:17:53.325Z,9.10
2018-12-25T11:20:33.203Z,31.77
2018-12-25T11:23:13.046Z,9.23
2018-12-25T11:25:53.199Z,9.53
2018-12-25T11:28:33.443Z,9.68
2018-12-25T11:31:13.285Z,9.85
2018-12-25T11:33:53.232Z,10.48
2018-12-25T11:36:33.393Z,8.70
2018-12-25T11:39:13.329Z,7.90
2018-12-25T11:41:53.186Z,8.25
2018-12-25T11:44:33.451Z,11.43
2018-12-25T11:47:13.429Z,9.90
2018-12-25T11:49:53.409Z,10.75
2018-12-25T11:52:33.426Z,8.98
2018-12-25T11:55:13.419Z,11.20
2018-12-25T11:57:53.215Z,10.68
2018-12-25T12:00:33.425Z,12.80
2018-12-25T12:03:13.460Z,11.30
2018-12-25T12:05:53.582Z,12.00
2018-12-25T12:08:33.714Z,13.45
2018-12-25T12:11:17.890Z,12.07
2018-12-25T12:13:57.840Z,12.10
2018-12-25T12:16:37.618Z,10.65
2018-12-25T12:19:17.404Z,11.50
2018-12-25T12:21:57.666Z,11.85
2018-12-25T12:24:37.867Z,12.07
2018-12-25T12:27:18.018Z,12.60
2018-12-25T12:29:58.182Z,13.30
2018-12-25T12:32:38.465Z,13.00
2018-12-25T12:35:18.454Z,12.95
2018-12-25T12:37:58.681Z,13.20
2018-12-25T12:40:40.530Z,12.63
2018-12-25T12:43:20.782Z,12.78
2018-12-25T12:46:00.969Z,12.47
2018-12-25T12:48:40.891Z,10.90
2018-12-25T12:51:21.260Z,11.60
2018-12-25T12:54:01.225Z,13.80
2018-12-25T12:56:41.513Z,11.00
2018-12-25T12:59:21.348Z,11.38
2018-12-25T13:02:01.476Z,10.43
2018-12-25T13:04:41.570Z,10.75
2018-12-25T13:07:21.913Z,11.00
2018-12-25T13:10:02.304Z,10.77
2018-12-25T13:12:42.448Z,11.93
2018-12-25T13:15:22.649Z,11.73
2018-12-25T13:18:02.650Z,11.28
2018-12-25T13:20:42.515Z,11.15
2018-12-25T13:23:22.862Z,10.75
2018-12-25T13:26:03.885Z,11.50
2018-12-25T13:28:43.776Z,10.53
2018-12-25T13:31:23.767Z,11.48
2018-12-25T13:34:03.890Z,10.82
2018-12-25T13:36:44.022Z,10.88
2018-12-25T13:39:24.066Z,11.20
2018-12-25T13:42:04.035Z,11.90
2018-12-25T13:44:44.313Z,11.53
2018-12-25T13:47:24.521Z,10.50
2018-12-25T13:50:04.673Z,12.03
2018-12-25T13:52:44.794Z,10.88
2018-12-25T13:55:24.910Z,11.60
2018-12-25T13:58:05.074Z,10.78
2018-12-25T14:00:45.022Z,9.40
2018-12-25T14:03:25.205Z,9.18
2018-12-25T14:06:05.470Z,8.33
2018-12-25T14:08:45.815Z,9.00
2018-12-25T14:11:26.058Z,9.83
2018-12-25T14:14:06.058Z,9.60
2018-12-25T14:16:46.334Z,9.28
2018-12-25T14:19:26.650Z,9.40
2018-12-25T14:22:06.766Z,9.93
2018-12-25T14:24:33.733Z,9.40
2018-12-25T14:27:00.665Z,9.20
2018-12-25T14:29:27.561Z,11.93
2018-12-25T14:31:54.350Z,13.15
2018-12-25T14:34:21.208Z,11.80
2018-12-25T14:36:48.009Z,9.40
2018-12-25T14:39:15.075Z,9.90
2018-12-25T14:41:42.493Z,9.60
2018-12-25T14:44:09.325Z,10.70
2018-12-25T14:46:36.285Z,9.23
2018-12-25T14:49:03.174Z,9.90
2018-12-25T14:51:29.989Z,10.70
2018-12-25T14:53:56.842Z,10.28
2018-12-25T14:56:23.645Z,10.85
2018-12-25T14:58:50.525Z,10.10
2018-12-25T15:01:17.357Z,9.58
2018-12-25T15:03:44.214Z,10.70
2018-12-25T15:06:11.038Z,10.10
2018-12-25T15:08:37.887Z,19.35
2018-12-25T15:11:04.656Z,10.80
2018-12-25T15:13:31.479Z,19.73
2018-12-25T15:15:58.340Z,12.35
2018-12-25T15:18:25.129Z,11.73
2018-12-25T15:20:51.961Z,10.03
2018-12-25T15:23:18.766Z,13.00
2018-12-25T15:25:45.656Z,11.03
2018-12-25T15:28:12.476Z,10.60
2018-12-25T15:30:39.301Z,11.00
2018-12-25T15:33:06.093Z,10.93
2018-12-25T15:35:32.912Z,11.20
2018-12-25T15:37:59.737Z,11.57
2018-12-25T15:40:26.536Z,12.20
2018-12-25T15:42:53.372Z,11.50
2018-12-25T15:45:20.203Z,16.37
2018-12-25T15:47:46.986Z,23.30
2018-12-25T15:50:13.831Z,17.80
2018-12-25T15:52:40.694Z,19.07
2018-12-25T15:55:07.486Z,16.77
2018-12-25T15:57:34.351Z,28.87
2018-12-25T16:00:01.184Z,26.82
2018-12-25T16:02:27.986Z,28.62
2018-12-25T16:04:54.846Z,14.47
2018-12-25T16:07:21.680Z,13.70
2018-12-25T16:09:48.471Z,17.27
2018-12-25T16:12:15.340Z,15.10
2018-12-25T16:14:42.161Z,14.47
2018-12-25T16:17:08.952Z,14.95
2018-12-25T16:19:35.829Z,14.38
2018-12-25T16:22:02.669Z,27.30
2018-12-25T16:24:29.469Z,18.35
2018-12-25T16:26:56.553Z,11.45
2018-12-25T16:29:23.513Z,10.35
2018-12-25T16:31:50.369Z,11.03
2018-12-25T16:34:17.266Z,10.85
2018-12-25T16:36:44.058Z,12.63
2018-12-25T16:39:11.001Z,12.25
2018-12-25T16:41:37.805Z,12.30
2018-12-25T16:44:04.657Z,11.73
2018-12-25T16:46:31.507Z,12.98
2018-12-25T16:48:58.344Z,11.28
2018-12-25T16:51:25.150Z,13.70
2018-12-25T16:53:53.649Z,12.30
2018-12-25T16:56:20.711Z,11.97
2018-12-25T16:58:47.558Z,13.10
2018-12-25T17:01:14.418Z,13.00
2018-12-25T17:03:41.319Z,13.00
2018-12-25T17:06:08.190Z,11.93
2018-12-25T17:08:34.992Z,12.53
2018-12-25T17:11:01.816Z,12.15
2018-12-25T17:13:28.624Z,11.70
2018-12-25T17:15:55.464Z,14.30
2018-12-25T17:18:22.254Z,13.98
2018-12-25T17:20:49.085Z,15.10
2018-12-25T17:23:15.870Z,13.68
2018-12-25T17:25:42.694Z,14.07
2018-12-25T17:28:09.562Z,14.63
2018-12-25T17:30:36.388Z,15.10
2018-12-25T17:33:03.189Z,14.73
2018-12-25T17:35:30.025Z,14.60
2018-12-25T17:37:56.821Z,14.43
2018-12-25T17:40:23.678Z,14.03
2018-12-25T17:42:50.522Z,14.23
2018-12-25T17:45:17.343Z,13.95
2018-12-25T17:47:44.134Z,13.60
2018-12-25T17:50:10.978Z,12.60
2018-12-25T17:52:37.789Z,14.45
2018-12-25T17:55:04.617Z,13.95
2018-12-25T17:57:32.655Z,15.05
2018-12-25T17:59:59.676Z,16.35
2018-12-25T18:02:26.734Z,14.18
2018-12-25T18:04:53.560Z,14.50
2018-12-25T18:07:20.405Z,15.20
2018-12-25T18:09:47.208Z,16.80
2018-12-25T18:12:14.078Z,17.48
2018-12-25T18:14:41.390Z,16.30
2018-12-25T18:17:08.388Z,14.05
2018-12-25T18:19:35.246Z,16.07
2018-12-25T18:22:02.042Z,16.37
2018-12-25T18:24:28.869Z,14.07
2018-12-25T18:26:55.669Z,13.78
2018-12-25T18:29:22.554Z,12.98
2018-12-25T18:31:49.345Z,15.35
2018-12-25T18:34:16.199Z,13.38
2018-12-25T18:36:42.990Z,12.60
2018-12-25T18:39:09.795Z,14.13
2018-12-25T18:41:36.648Z,13.65
2018-12-25T18:44:03.448Z,12.25
2018-12-25T18:46:30.296Z,17.05
2018-12-25T18:48:57.114Z,12.10
2018-12-25T18:51:23.922Z,13.35
2018-12-25T18:53:50.753Z,14.05
2018-12-25T18:56:17.593Z,12.75
2018-12-25T18:58:44.394Z,15.72
2018-12-25T19:01:11.228Z,12.88
2018-12-25T19:03:38.115Z,10.78
2018-12-25T19:06:04.937Z,11.25
2018-12-25T19:08:38.865Z,14.78
2018-12-25T19:11:05.742Z,15.25
2018-12-25T19:13:32.550Z,13.50
2018-12-25T19:15:59.670Z,13.55
2018-12-25T19:18:26.497Z,10.50
2018-12-25T19:20:53.365Z,18.20
2018-12-25T19:23:20.160Z,17.52
2018-12-25T19:25:47.045Z,14.23
2018-12-25T19:28:13.869Z,29.87
2018-12-25T19:30:40.735Z,15.95
2018-12-25T19:33:07.582Z,18.17
2018-12-25T19:35:34.373Z,17.37
2018-12-25T19:38:01.207Z,19.15
2018-12-25T19:40:31.753Z,26.40
2018-12-25T19:42:58.665Z,19.35
2018-12-25T19:45:25.566Z,13.43
2018-12-25T19:47:52.422Z,16.65
2018-12-25T19:50:19.866Z,12.43
2018-12-25T19:52:46.673Z,11.95
2018-12-25T19:55:13.519Z,12.20
2018-12-25T19:57:40.334Z,12.95
2018-12-25T20:00:09.787Z,12.23
2018-12-25T20:02:36.805Z,16.25
2018-12-25T20:05:13.850Z,15.80
2018-12-25T20:07:53.079Z,14.45
2018-12-25T20:10:30.563Z,14.18
2018-12-25T20:13:35.590Z,12.60
2018-12-25T20:16:18.011Z,14.98
2018-12-25T20:19:00.634Z,16.60
2018-12-25T20:21:42.981Z,13.55
2018-12-25T20:24:19.461Z,25.08
2018-12-25T20:26:56.086Z,17.75
2018-12-25T20:30:01.324Z,16.30
2018-12-25T20:32:37.713Z,14.55
2018-12-25T20:35:36.848Z,16.32
2018-12-25T20:38:07.301Z,16.05
2018-12-25T20:40:49.511Z,14.45
2018-12-25T20:43:26.029Z,15.18
2018-12-25T20:46:17.645Z,18.67
2018-12-25T20:48:53.777Z,12.78
2018-12-25T20:51:42.120Z,11.75
2018-12-25T20:54:18.052Z,14.65
2018-12-25T20:57:11.103Z,12.20
2018-12-25T20:59:56.502Z,12.43
2018-12-25T21:02:26.921Z,14.63
2018-12-25T21:05:09.504Z,15.50
2018-12-25T21:07:59.428Z,14.00
2018-12-25T21:10:49.449Z,12.88
2018-12-25T21:13:53.157Z,12.47
2018-12-25T21:16:38.613Z,16.00
2018-12-25T21:19:09.033Z,15.65
2018-12-25T21:21:42.057Z,14.85
2018-12-25T21:24:45.982Z,20.08
2018-12-25T21:27:31.077Z,15.75
2018-12-25T21:30:00.075Z,16.82
2018-12-25T21:32:27.724Z,15.58
2018-12-25T21:34:58.298Z,15.23
2018-12-25T21:37:25.050Z,16.57
2018-12-25T21:39:52.115Z,16.85
2018-12-25T21:42:19.005Z,16.25
2018-12-25T21:44:46.508Z,15.85
2018-12-25T21:47:13.498Z,17.00
2018-12-25T21:49:43.825Z,18.23
2018-12-25T21:52:11.047Z,20.75
2018-12-25T21:54:38.309Z,17.40
2018-12-25T21:57:05.454Z,16.17
2018-12-25T21:59:32.816Z,15.90
2018-12-25T22:02:00.121Z,17.70
2018-12-25T22:04:27.204Z,15.55
2018-12-25T22:06:54.368Z,15.30
2018-12-25T22:09:21.162Z,16.20
2018-12-25T22:11:48.109Z,15.53
2018-12-25T22:14:14.904Z,14.93
2018-12-25T22:16:41.879Z,14.05
2018-12-25T22:19:08.672Z,17.05
2018-12-25T22:21:36.642Z,19.55
2018-12-25T22:24:03.456Z,15.70
2018-12-25T22:26:30.500Z,19.25
2018-12-25T22:28:57.321Z,21.02
2018-12-25T22:31:24.249Z,19.02
2018-12-25T22:33:51.066Z,16.90
2018-12-25T22:36:17.976Z,15.45
2018-12-25T22:38:44.767Z,18.10
2018-12-25T22:41:11.764Z,17.87
2018-12-25T22:43:38.580Z,18.87
2018-12-25T22:46:05.559Z,17.25
2018-12-25T22:48:32.436Z,20.10
2018-12-25T22:50:59.344Z,18.27
2018-12-25T22:53:26.168Z,23.18
2018-12-25T22:55:53.121Z,18.82
2018-12-25T22:58:19.941Z,22.40
2018-12-25T23:00:48.874Z,24.52
2018-12-25T23:03:15.693Z,19.55
2018-12-25T23:05:42.561Z,23.55
2018-12-25T23:08:09.381Z,20.50
2018-12-25T23:10:36.353Z,20.57
2018-12-25T23:13:03.256Z,21.30
2018-12-25T23:15:30.080Z,19.52
2018-12-25T23:17:57.270Z,19.55
2018-12-25T23:20:28.626Z,19.52
2018-12-25T23:22:52.853Z,17.62
2018-12-25T23:25:19.706Z,16.10
2018-12-25T23:27:46.497Z,17.73
2018-12-25T23:30:13.314Z,17.23
2018-12-25T23:32:40.094Z,17.05
2018-12-25T23:35:06.927Z,17.02
2018-12-25T23:37:33.697Z,18.15
2018-12-25T23:40:00.531Z,17.77
2018-12-25T23:42:27.448Z,15.55
2018-12-25T23:44:54.270Z,21.70
2018-12-25T23:47:21.052Z,20.50
2018-12-25T23:49:47.870Z,19.62
2018-12-25T23:52:14.684Z,17.98
2018-12-25T23:54:41.466Z,22.42
2018-12-25T23:57:08.289Z,25.65
2018-12-25T23:59:35.078Z,25.17
